Time;durP1;ratioP1;P1;durP2;ratioP2;P2;SDS_P1;SDS_P2;PMS_P1;PMS_P2;Temp;Humidity;BMP_temperature;BMP_pressure;BME280_temperature;BME280_humidity;BME280_pressure;Samples;Min_cycle;Max_cycle;Signal;HPM_P1;HPM_P2
2022/04/14 00:00:58;;;;;;;7.82;7.03;;;12.00;96.40;;;;;;5095387;28;20428;-73
2022/04/14 00:03:24;;;;;;;8.25;7.45;;;12.00;96.30;;;;;;5094367;28;20550;-74
2022/04/14 00:05:51;;;;;;;11.10;8.05;;;11.90;96.40;;;;;;5094438;28;20048;-73
2022/04/14 00:08:18;;;;;;;12.77;10.52;;;11.80;97.50;;;;;;5095034;28;20495;-72
2022/04/14 00:10:44;;;;;;;17.73;12.95;;;11.70;97.80;;;;;;5109984;28;20501;-73
2022/04/14 00:13:11;;;;;;;11.25;10.05;;;11.70;98.70;;;;;;5114452;28;20105;-73
2022/04/14 00:15:39;;;;;;;12.15;8.75;;;11.60;98.50;;;;;;5114415;28;20485;-73
2022/04/14 00:18:06;;;;;;;10.57;7.85;;;11.50;98.30;;;;;;5103779;28;20040;-73
2022/04/14 00:20:32;;;;;;;8.07;7.28;;;11.50;98.80;;;;;;5094499;28;20051;-73
2022/04/14 00:22:59;;;;;;;7.20;6.50;;;11.60;98.20;;;;;;5113336;28;20554;-73
2022/04/14 00:25:26;;;;;;;11.77;8.85;;;11.50;98.10;;;;;;5114822;28;20051;-73
2022/04/14 00:27:53;;;;;;;7.75;7.00;;;11.50;98.70;;;;;;5112256;28;20477;-72
2022/04/14 00:30:19;;;;;;;10.40;8.60;;;11.40;98.70;;;;;;5114503;28;20256;-73
2022/04/14 00:32:47;;;;;;;8.85;7.20;;;11.20;99.90;;;;;;5106488;28;20447;-72
2022/04/14 00:35:14;;;;;;;7.63;6.40;;;11.20;99.90;;;;;;5094241;28;20089;-73
2022/04/14 00:37:41;;;;;;;7.80;6.07;;;11.10;99.20;;;;;;5094561;28;20052;-74
2022/04/14 00:40:09;;;;;;;9.77;6.65;;;11.10;99.20;;;;;;5098372;28;20043;-73
2022/04/14 00:42:35;;;;;;;9.27;7.53;;;11.20;99.00;;;;;;5108572;28;20102;-73
2022/04/14 00:45:03;;;;;;;10.63;7.90;;;11.10;99.90;;;;;;5093573;28;20542;-72
2022/04/14 00:47:30;;;;;;;10.18;8.77;;;11.00;99.90;;;;;;5093559;28;20048;-72
2022/04/14 00:49:58;;;;;;;10.73;8.57;;;10.90;99.90;;;;;;5094590;28;20481;-73
2022/04/14 00:52:26;;;;;;;9.95;8.95;;;10.70;99.90;;;;;;5093939;28;20059;-73
2022/04/14 00:54:53;;;;;;;9.52;8.52;;;10.70;99.90;;;;;;5093510;28;20040;-72
2022/04/14 00:57:20;;;;;;;9.77;8.23;;;10.50;99.90;;;;;;5093752;28;20044;-72
2022/04/14 00:59:46;;;;;;;9.45;7.47;;;10.30;99.90;;;;;;5094907;28;20097;-73
2022/04/14 01:02:13;;;;;;;8.68;7.40;;;10.20;99.90;;;;;;5093770;28;20051;-72
2022/04/14 01:04:41;;;;;;;10.23;8.18;;;10.20;99.90;;;;;;5094443;28;20477;-73
2022/04/14 01:07:09;;;;;;;11.32;8.57;;;10.10;99.90;;;;;;5093294;28;20423;-72
2022/04/14 01:09:37;;;;;;;8.90;8.00;;;10.10;99.90;;;;;;5094855;28;20048;-73
2022/04/14 01:12:04;;;;;;;10.55;7.90;;;10.20;99.90;;;;;;5110252;28;20042;-74
2022/04/14 01:14:32;;;;;;;12.98;8.77;;;10.00;99.90;;;;;;5112276;28;20045;-73
2022/04/14 01:17:00;;;;;;;11.63;8.98;;;9.80;99.90;;;;;;5114324;28;20056;-73
2022/04/14 01:19:28;;;;;;;10.18;9.23;;;9.70;99.90;;;;;;5113641;28;20055;-73
2022/04/14 01:22:01;;;;;;;12.00;9.32;;;9.70;99.90;;;;;;5111837;28;20040;-73
2022/04/14 01:24:30;;;;;;;9.45;7.75;;;9.60;99.90;;;;;;5110199;28;20039;-73
2022/04/14 01:26:59;;;;;;;10.30;8.27;;;9.50;99.90;;;;;;5113611;28;20048;-71
2022/04/14 01:29:26;;;;;;;9.85;8.07;;;9.60;99.90;;;;;;5113691;28;20116;-72
2022/04/14 01:31:54;;;;;;;11.20;7.30;;;9.70;99.90;;;;;;5111333;28;20113;-73
2022/04/14 01:34:21;;;;;;;9.90;8.35;;;9.80;99.90;;;;;;5103789;28;20044;-73
2022/04/14 01:36:48;;;;;;;8.13;7.38;;;9.90;99.90;;;;;;5094566;28;20097;-72
2022/04/14 01:39:15;;;;;;;10.75;7.72;;;9.80;99.90;;;;;;5103602;28;20044;-72
2022/04/14 01:41:44;;;;;;;13.82;8.10;;;9.80;99.90;;;;;;5111955;28;20051;-72
2022/04/14 01:44:31;;;;;;;10.77;6.80;;;9.70;99.90;;;;;;5092980;28;20044;-73
2022/04/14 01:46:57;;;;;;;10.45;7.88;;;9.60;99.90;;;;;;5031727;28;20045;-73
2022/04/14 01:49:24;;;;;;;12.73;8.38;;;9.50;99.90;;;;;;5030949;28;20538;-73
2022/04/14 01:51:51;;;;;;;8.98;8.07;;;9.40;99.90;;;;;;5030952;28;20457;-72
2022/04/14 01:54:17;;;;;;;9.38;8.15;;;9.40;99.90;;;;;;5031840;28;20502;-72
2022/04/14 01:56:46;;;;;;;11.00;8.23;;;9.30;99.90;;;;;;5032466;28;20037;-72
2022/04/14 01:59:13;;;;;;;9.77;7.82;;;9.10;99.90;;;;;;5034314;28;20137;-72
2022/04/14 02:01:40;;;;;;;8.15;7.32;;;9.20;99.90;;;;;;5034735;28;20053;-72
2022/04/14 02:04:08;;;;;;;9.07;8.18;;;9.20;99.90;;;;;;5041064;28;20049;-73
2022/04/14 02:06:34;;;;;;;8.90;8.00;;;9.40;99.90;;;;;;5102002;28;20075;-73
2022/04/14 02:09:01;;;;;;;9.50;8.07;;;9.40;99.90;;;;;;5096984;28;20493;-73
2022/04/14 02:11:28;;;;;;;9.32;8.38;;;9.30;99.90;;;;;;5097144;28;20044;-73
2022/04/14 02:13:56;;;;;;;10.75;8.57;;;9.30;99.90;;;;;;5097149;28;20479;-71
2022/04/14 02:16:22;;;;;;;11.40;8.77;;;9.10;99.90;;;;;;5096722;28;20104;-72
2022/04/14 02:18:49;;;;;;;10.80;8.13;;;9.00;99.90;;;;;;5097738;28;20048;-72
2022/04/14 02:21:16;;;;;;;13.48;8.13;;;9.00;99.90;;;;;;5096608;28;20048;-72
2022/04/14 02:23:42;;;;;;;10.13;8.05;;;9.00;99.90;;;;;;5096670;28;20040;-72
2022/04/14 02:26:09;;;;;;;9.57;8.38;;;8.90;99.90;;;;;;5114262;28;20104;-72
2022/04/14 02:28:36;;;;;;;9.88;7.78;;;9.00;99.90;;;;;;5098793;28;20047;-72
2022/04/14 02:31:04;;;;;;;10.82;7.60;;;8.90;99.90;;;;;;5096122;28;20490;-73
2022/04/14 02:33:30;;;;;;;11.93;9.05;;;8.90;99.90;;;;;;5096626;28;20055;-73
2022/04/14 02:35:57;;;;;;;13.40;9.02;;;8.70;99.90;;;;;;5112245;28;20039;-73
2022/04/14 02:38:24;;;;;;;8.85;7.90;;;8.60;99.90;;;;;;5115731;28;20490;-73
2022/04/14 02:40:50;;;;;;;10.93;8.57;;;8.60;99.90;;;;;;5116423;28;20048;-73
2022/04/14 02:43:17;;;;;;;12.77;8.73;;;8.70;99.90;;;;;;5114800;28;20040;-73
2022/04/14 02:45:43;;;;;;;9.57;8.05;;;8.70;99.90;;;;;;5114430;28;20089;-73
2022/04/14 02:48:11;;;;;;;9.10;8.35;;;8.70;99.90;;;;;;5116659;28;20108;-72
2022/04/14 02:50:38;;;;;;;13.13;8.32;;;8.50;99.90;;;;;;5114626;28;20048;-73
2022/04/14 02:53:05;;;;;;;11.07;9.48;;;8.50;99.90;;;;;;5116659;28;20134;-73
2022/04/14 02:55:32;;;;;;;10.25;8.05;;;8.60;99.90;;;;;;5116173;28;20566;-73
2022/04/14 02:57:58;;;;;;;9.27;8.25;;;8.40;99.90;;;;;;5114468;28;20043;-72
2022/04/14 03:00:25;;;;;;;9.50;8.52;;;8.20;99.90;;;;;;5114427;28;20043;-72
2022/04/14 03:02:51;;;;;;;11.38;7.90;;;8.20;99.90;;;;;;5106622;28;20515;-72
2022/04/14 03:05:19;;;;;;;10.93;7.65;;;8.40;99.90;;;;;;5095869;28;20098;-72
2022/04/14 03:07:46;;;;;;;10.95;8.00;;;8.40;99.90;;;;;;5095426;28;20056;-72
2022/04/14 03:10:13;;;;;;;12.13;8.90;;;8.40;99.90;;;;;;5096200;28;20048;-72
2022/04/14 03:12:44;;;;;;;13.70;9.02;;;8.40;99.90;;;;;;5111151;28;20485;-73
2022/04/14 03:15:11;;;;;;;8.80;7.87;;;8.40;99.90;;;;;;5115937;28;20044;-73
2022/04/14 03:17:37;;;;;;;9.02;8.13;;;8.40;99.90;;;;;;5113824;28;20296;-73
2022/04/14 03:20:05;;;;;;;8.68;7.70;;;8.50;99.90;;;;;;5115903;28;20100;-73
2022/04/14 03:22:34;;;;;;;10.02;8.80;;;8.40;99.90;;;;;;5113796;28;20047;-73
2022/04/14 03:25:02;;;;;;;9.82;8.02;;;8.30;99.90;;;;;;5115479;28;20404;-72
2022/04/14 03:27:29;;;;;;;13.15;8.45;;;8.40;99.90;;;;;;5113868;28;20040;-73
2022/04/14 03:29:56;;;;;;;8.45;7.70;;;8.50;99.90;;;;;;5112944;28;20448;-72
2022/04/14 03:32:24;;;;;;;11.80;8.87;;;8.60;99.90;;;;;;5096296;28;20044;-73
2022/04/14 03:34:51;;;;;;;8.98;7.85;;;8.60;99.90;;;;;;5096837;28;20149;-72
2022/04/14 03:37:17;;;;;;;10.23;7.53;;;8.60;99.90;;;;;;5113737;28;20443;-72
2022/04/14 03:39:45;;;;;;;8.40;7.60;;;8.70;99.90;;;;;;5115511;28;20047;-73
2022/04/14 03:42:12;;;;;;;10.75;8.40;;;8.60;99.90;;;;;;5113324;28;20056;-73
2022/04/14 03:44:38;;;;;;;11.40;9.68;;;8.60;99.90;;;;;;5114896;28;20181;-73
2022/04/14 03:47:06;;;;;;;12.18;8.23;;;8.70;99.90;;;;;;5115002;28;20647;-73
2022/04/14 03:49:32;;;;;;;9.05;8.18;;;8.80;99.90;;;;;;5113434;28;20070;-72
2022/04/14 03:51:59;;;;;;;11.15;8.60;;;8.60;99.90;;;;;;5115355;28;20088;-73
2022/04/14 03:54:26;;;;;;;10.82;9.00;;;8.60;99.90;;;;;;5113263;28;20051;-74
2022/04/14 03:56:54;;;;;;;9.93;7.78;;;8.60;99.90;;;;;;5114895;28;20047;-73
2022/04/14 03:59:21;;;;;;;11.18;9.88;;;8.50;99.90;;;;;;5113385;28;20047;-73
2022/04/14 04:01:47;;;;;;;13.20;8.60;;;8.50;99.90;;;;;;5114624;28;20052;-73
2022/04/14 04:04:14;;;;;;;12.10;9.23;;;8.50;99.90;;;;;;5113402;28;20093;-74
2022/04/14 04:06:41;;;;;;;12.57;8.73;;;8.50;99.90;;;;;;5115739;28;20120;-72
2022/04/14 04:09:08;;;;;;;11.55;9.55;;;8.40;99.90;;;;;;5117120;28;20048;-73
2022/04/14 04:11:35;;;;;;;13.25;8.80;;;8.50;99.90;;;;;;5116307;28;20409;-73
2022/04/14 04:14:03;;;;;;;11.02;9.85;;;8.50;99.90;;;;;;5114423;28;20088;-73
2022/04/14 04:16:30;;;;;;;10.77;9.65;;;8.50;99.90;;;;;;5116844;28;20051;-73
2022/04/14 04:18:56;;;;;;;11.95;10.02;;;8.50;99.90;;;;;;5116632;28;20055;-73
2022/04/14 04:21:24;;;;;;;10.57;8.68;;;8.40;99.90;;;;;;5109740;28;20485;-73
2022/04/14 04:23:51;;;;;;;12.13;9.35;;;8.40;99.90;;;;;;5114295;28;20083;-73
2022/04/14 04:26:18;;;;;;;9.43;8.50;;;8.40;99.90;;;;;;5099076;28;20044;-73
2022/04/14 04:28:44;;;;;;;11.88;9.45;;;8.50;99.90;;;;;;5096741;28;20040;-73
2022/04/14 04:31:12;;;;;;;12.50;9.13;;;8.50;99.90;;;;;;5103455;28;20055;-73
2022/04/14 04:33:39;;;;;;;12.68;9.45;;;8.60;99.90;;;;;;5117561;28;20130;-73
2022/04/14 04:36:07;;;;;;;9.55;8.60;;;8.60;99.90;;;;;;5114737;28;20225;-73
2022/04/14 04:38:34;;;;;;;12.40;10.43;;;8.80;99.90;;;;;;5118889;28;20043;-73
2022/04/14 04:41:00;;;;;;;12.68;9.65;;;8.90;99.90;;;;;;5119003;28;20085;-73
2022/04/14 04:43:27;;;;;;;14.15;9.75;;;9.10;99.90;;;;;;5115495;28;20138;-72
2022/04/14 04:45:54;;;;;;;15.68;9.63;;;9.40;99.90;;;;;;5117120;28;20435;-72
2022/04/14 04:48:22;;;;;;;11.70;10.35;;;9.50;99.90;;;;;;5118115;28;20047;-72
2022/04/14 04:50:49;;;;;;;13.95;10.60;;;9.70;99.90;;;;;;5107964;28;20045;-73
2022/04/14 04:53:15;;;;;;;15.65;10.43;;;9.80;99.90;;;;;;5099687;28;20123;-72
2022/04/14 04:55:42;;;;;;;11.40;9.60;;;9.90;99.90;;;;;;5094697;28;20048;-72
2022/04/14 04:58:09;;;;;;;17.45;11.90;;;10.00;99.90;;;;;;5112441;28;20043;-73
2022/04/14 05:00:36;;;;;;;14.10;9.30;;;10.00;99.90;;;;;;5113723;28;20044;-72
2022/04/14 05:03:07;;;;;;;12.43;10.07;;;10.20;99.90;;;;;;5112276;28;20132;-72
2022/04/14 05:05:35;;;;;;;14.50;10.73;;;10.30;99.90;;;;;;5113715;28;20191;-72
2022/04/14 05:08:02;;;;;;;10.77;8.85;;;10.40;99.90;;;;;;5111423;28;20043;-72
2022/04/14 05:10:29;;;;;;;13.02;10.60;;;10.50;99.90;;;;;;5113116;28;20092;-72
2022/04/14 05:12:56;;;;;;;15.65;11.48;;;10.60;99.90;;;;;;5112072;28;20244;-72
2022/04/14 05:15:22;;;;;;;16.33;9.88;;;10.70;99.90;;;;;;5114532;28;20092;-73
2022/04/14 05:17:49;;;;;;;15.10;10.18;;;10.80;99.90;;;;;;5112008;28;20040;-73
2022/04/14 05:20:16;;;;;;;15.23;9.82;;;11.00;99.90;;;;;;5103011;28;20047;-72
2022/04/14 05:22:44;;;;;;;15.70;10.52;;;11.10;99.90;;;;;;5104015;28;20044;-73
2022/04/14 05:25:10;;;;;;;13.65;10.13;;;11.30;99.90;;;;;;5094410;28;20044;-72
2022/04/14 05:27:37;;;;;;;16.48;9.75;;;11.40;99.90;;;;;;5093685;28;20048;-72
2022/04/14 05:30:05;;;;;;;15.05;9.98;;;11.50;99.90;;;;;;5093942;28;20048;-72
2022/04/14 05:32:31;;;;;;;15.32;10.30;;;11.60;99.90;;;;;;5095594;28;20051;-72
2022/04/14 05:34:58;;;;;;;13.27;9.95;;;11.70;99.90;;;;;;5098366;28;20036;-72
2022/04/14 05:37:25;;;;;;;14.93;10.82;;;11.90;99.90;;;;;;5117900;28;20048;-71
2022/04/14 05:39:53;;;;;;;12.95;8.98;;;12.00;99.90;;;;;;5115537;28;20122;-72
2022/04/14 05:42:19;;;;;;;14.27;9.38;;;12.00;99.90;;;;;;5115395;28;20089;-72
2022/04/14 05:44:47;;;;;;;9.95;7.97;;;12.10;99.90;;;;;;5109303;28;20051;-72
2022/04/14 05:47:14;;;;;;;13.40;9.38;;;12.10;99.90;;;;;;5104860;28;20048;-72
2022/04/14 05:49:40;;;;;;;14.55;9.07;;;12.10;99.90;;;;;;5099292;28;20044;-72
2022/04/14 05:52:08;;;;;;;10.13;8.98;;;12.20;99.90;;;;;;5109060;28;20486;-74
2022/04/14 05:54:34;;;;;;;15.23;8.98;;;12.30;99.90;;;;;;5106181;28;20077;-73
2022/04/14 05:57:02;;;;;;;9.77;8.10;;;12.30;99.90;;;;;;5117761;28;20104;-73
2022/04/14 05:59:29;;;;;;;11.43;9.32;;;12.40;99.90;;;;;;5103851;28;20044;-73
2022/04/14 06:01:56;;;;;;;12.85;9.55;;;12.50;99.90;;;;;;5097114;28;20105;-72
2022/04/14 06:04:23;;;;;;;14.30;11.05;;;12.60;99.90;;;;;;5096995;28;20044;-72
2022/04/14 06:06:50;;;;;;;14.02;9.15;;;12.80;99.90;;;;;;5097606;28;20059;-77
2022/04/14 06:09:16;;;;;;;13.50;8.63;;;12.90;99.90;;;;;;5097961;28;20052;-75
2022/04/14 06:11:43;;;;;;;11.10;8.82;;;13.00;99.90;;;;;;5096953;28;20044;-75
2022/04/14 06:14:11;;;;;;;12.68;7.55;;;13.10;99.90;;;;;;5096853;28;20543;-75
2022/04/14 06:16:37;;;;;;;9.60;8.27;;;13.20;99.90;;;;;;5102322;28;20039;-73
2022/04/14 06:19:04;;;;;;;10.20;8.15;;;13.40;99.90;;;;;;5113456;28;20043;-73
2022/04/14 06:21:31;;;;;;;11.52;8.07;;;13.60;99.90;;;;;;5116712;28;20124;-73
2022/04/14 06:23:57;;;;;;;9.65;7.47;;;13.80;99.90;;;;;;5116676;28;20043;-73
2022/04/14 06:26:24;;;;;;;9.02;7.55;;;14.10;99.90;;;;;;5114348;28;20051;-73
2022/04/14 06:28:51;;;;;;;9.27;7.70;;;14.40;99.90;;;;;;5115688;28;20040;-73
2022/04/14 06:31:19;;;;;;;10.98;8.13;;;14.70;99.90;;;;;;5114604;28;20084;-74
2022/04/14 06:33:45;;;;;;;11.23;7.25;;;14.90;99.90;;;;;;5116710;28;20489;-73
2022/04/14 06:36:12;;;;;;;10.10;7.18;;;15.00;99.90;;;;;;5116762;28;20093;-76
2022/04/14 06:38:39;;;;;;;8.82;7.32;;;15.10;99.90;;;;;;5104151;28;20039;-76
2022/04/14 06:41:06;;;;;;;10.48;7.30;;;15.10;99.90;;;;;;5109221;28;20040;-75
2022/04/14 06:43:33;;;;;;;12.18;7.30;;;15.10;99.90;;;;;;5096312;28;20049;-73
2022/04/14 06:46:03;;;;;;;14.10;7.25;;;15.10;99.90;;;;;;5095516;28;20476;-73
2022/04/14 06:48:32;;;;;;;8.00;6.53;;;15.20;99.90;;;;;;5095945;28;20113;-74
2022/04/14 06:50:58;;;;;;;10.00;7.35;;;15.40;99.90;;;;;;5096902;28;20063;-74
2022/04/14 06:53:25;;;;;;;11.57;7.72;;;15.80;99.90;;;;;;5096321;28;20044;-73
2022/04/14 06:55:53;;;;;;;9.05;6.70;;;16.10;99.90;;;;;;5100315;28;20040;-73
2022/04/14 06:58:20;;;;;;;8.65;6.95;;;16.60;99.90;;;;;;5115773;28;20082;-73
2022/04/14 07:00:46;;;;;;;15.73;7.88;;;16.90;99.90;;;;;;5113652;28;20539;-75
2022/04/14 07:03:13;;;;;;;8.60;6.85;;;17.20;99.90;;;;;;5116060;28;20116;-73
2022/04/14 07:05:41;;;;;;;8.70;6.95;;;17.50;99.90;;;;;;5114297;28;20051;-76
2022/04/14 07:08:08;;;;;;;8.60;6.32;;;17.80;99.90;;;;;;5115588;28;20501;-76
2022/04/14 07:10:34;;;;;;;8.35;7.18;;;18.20;99.90;;;;;;5114199;28;20088;-75
2022/04/14 07:13:01;;;;;;;9.20;6.53;;;18.60;99.90;;;;;;5095873;28;20052;-75
2022/04/14 07:15:28;;;;;;;10.35;7.43;;;19.00;99.90;;;;;;5096302;28;20044;-73
2022/04/14 07:17:55;;;;;;;10.52;6.90;;;19.30;99.90;;;;;;5095252;28;20063;-74
2022/04/14 07:20:22;;;;;;;8.20;6.65;;;19.50;99.90;;;;;;5095409;28;20406;-73
2022/04/14 07:22:52;;;;;;;11.98;7.60;;;19.50;99.10;;;;;;5096213;28;20051;-73
2022/04/14 07:25:21;;;;;;;9.30;7.07;;;19.50;98.60;;;;;;5096134;28;20067;-73
2022/04/14 07:27:47;;;;;;;8.25;6.03;;;19.60;99.20;;;;;;5107001;28;20081;-72
2022/04/14 07:30:14;;;;;;;8.70;6.38;;;19.80;98.50;;;;;;5115756;28;20077;-74
2022/04/14 07:32:43;;;;;;;10.35;7.13;;;20.00;97.80;;;;;;5113071;28;20051;-73
2022/04/14 07:35:10;;;;;;;12.93;7.32;;;20.20;96.60;;;;;;5115113;28;20138;-73
2022/04/14 07:37:37;;;;;;;7.78;6.40;;;20.40;95.90;;;;;;5113645;28;20109;-75
2022/04/14 07:40:09;;;;;;;10.52;7.30;;;20.60;95.40;;;;;;5098482;28;20482;-72
2022/04/14 07:42:38;;;;;;;7.90;6.55;;;20.80;94.80;;;;;;5096083;28;20035;-72
2022/04/14 07:45:06;;;;;;;10.27;6.55;;;21.00;94.10;;;;;;5109478;28;20051;-74
2022/04/14 07:47:33;;;;;;;10.60;6.07;;;21.40;93.80;;;;;;5112997;28;20039;-74
2022/04/14 07:50:00;;;;;;;8.55;6.82;;;21.70;92.50;;;;;;5115596;28;20048;-74
2022/04/14 07:52:26;;;;;;;8.25;5.90;;;21.80;91.60;;;;;;5114882;28;20113;-73
2022/04/14 07:54:53;;;;;;;6.88;6.07;;;22.20;91.20;;;;;;5113080;28;20088;-74
2022/04/14 07:57:21;;;;;;;9.35;7.32;;;22.40;90.20;;;;;;5112923;28;20093;-73
2022/04/14 07:59:48;;;;;;;12.27;8.25;;;22.70;90.00;;;;;;5102662;28;20052;-74
2022/04/14 08:02:14;;;;;;;9.20;6.80;;;22.70;86.50;;;;;;5094707;28;20044;-75
2022/04/14 08:04:41;;;;;;;8.68;6.85;;;22.90;86.40;;;;;;5095696;28;20044;-74
2022/04/14 08:07:08;;;;;;;7.45;6.63;;;23.20;86.10;;;;;;5101797;28;20055;-75
2022/04/14 08:09:34;;;;;;;7.70;6.53;;;23.40;84.50;;;;;;5095733;28;20135;-75
2022/04/14 08:12:01;;;;;;;8.32;6.68;;;23.30;82.70;;;;;;5095139;28;20047;-75
2022/04/14 08:14:29;;;;;;;9.93;6.75;;;23.20;82.70;;;;;;5096083;28;20546;-76
2022/04/14 08:16:58;;;;;;;8.80;6.13;;;23.40;83.20;;;;;;5115350;28;20055;-73
2022/04/14 08:19:25;;;;;;;7.55;5.82;;;23.50;81.50;;;;;;5112494;28;20044;-78
2022/04/14 08:21:51;;;;;;;10.02;6.65;;;23.70;80.60;;;;;;5116345;28;20085;-73
2022/04/14 08:24:18;;;;;;;9.70;6.68;;;23.70;80.40;;;;;;5114943;28;20044;-73
2022/04/14 08:26:45;;;;;;;8.70;6.18;;;23.70;80.60;;;;;;5115383;28;20546;-73
2022/04/14 08:29:12;;;;;;;10.57;6.60;;;23.60;80.20;;;;;;5113528;28;20410;-75
2022/04/14 08:31:41;;;;;;;9.50;7.35;;;23.70;80.10;;;;;;5107415;28;20051;-74
2022/04/14 08:34:07;;;;;;;7.95;6.40;;;23.80;79.20;;;;;;5113743;28;20558;-74
2022/04/14 08:36:34;;;;;;;8.35;7.00;;;23.90;79.60;;;;;;5112704;28;20047;-75
2022/04/14 08:39:00;;;;;;;9.43;6.07;;;23.70;79.40;;;;;;5114484;28;20048;-73
2022/04/14 08:41:31;;;;;;;9.55;7.18;;;23.70;80.10;;;;;;5106914;28;20097;-73
2022/04/14 08:44:01;;;;;;;10.45;6.53;;;23.80;78.70;;;;;;5096288;28;20107;-72
2022/04/14 08:46:29;;;;;;;8.75;5.47;;;23.90;78.40;;;;;;5112004;28;20069;-72
2022/04/14 08:48:59;;;;;;;9.27;5.70;;;24.00;78.60;;;;;;5107286;28;20036;-74
2022/04/14 08:51:28;;;;;;;6.47;5.30;;;24.10;78.30;;;;;;5093097;28;20048;-73
2022/04/14 08:53:55;;;;;;;5.22;4.72;;;24.10;76.70;;;;;;5094004;28;20051;-73
2022/04/14 08:56:22;;;;;;;7.65;4.45;;;24.40;76.00;;;;;;5093776;28;20056;-73
2022/04/14 08:58:50;;;;;;;5.90;4.10;;;24.60;74.80;;;;;;5093433;28;20486;-72
2022/04/14 09:01:17;;;;;;;6.50;3.70;;;25.00;74.50;;;;;;5093924;28;20048;-72
2022/04/14 09:03:44;;;;;;;6.57;4.07;;;25.20;73.10;;;;;;5093769;28;20086;-73
2022/04/14 09:06:13;;;;;;;6.57;4.05;;;25.20;72.20;;;;;;5093539;28;20105;-72
2022/04/14 09:08:40;;;;;;;7.53;3.90;;;25.30;72.10;;;;;;5093243;28;20049;-73
2022/04/14 09:11:08;;;;;;;4.72;4.10;;;25.40;71.20;;;;;;5093646;28;20047;-73
2022/04/14 09:13:37;;;;;;;5.00;3.88;;;25.60;70.00;;;;;;5093753;28;20048;-72
2022/04/14 09:16:04;;;;;;;4.93;3.38;;;25.50;70.60;;;;;;5093885;28;20056;-73
2022/04/14 09:18:31;;;;;;;3.40;2.90;;;25.50;70.80;;;;;;5093497;28;20048;-72
2022/04/14 09:21:04;;;;;;;4.90;3.30;;;25.30;69.60;;;;;;5093308;28;20520;-73
2022/04/14 09:23:32;;;;;;;3.40;3.10;;;24.90;71.30;;;;;;5093335;28;20040;-73
2022/04/14 09:26:12;;;;;;;3.55;3.17;;;25.00;70.30;;;;;;5093393;28;20048;-74
2022/04/14 09:28:40;;;;;;;5.57;3.45;;;25.10;70.30;;;;;;5093491;28;20048;-73
2022/04/14 09:31:08;;;;;;;5.32;3.10;;;25.20;70.20;;;;;;5093454;28;20056;-72
2022/04/14 09:33:37;;;;;;;2.72;2.53;;;25.40;70.40;;;;;;5093253;28;20093;-72
2022/04/14 09:36:08;;;;;;;4.45;3.05;;;25.30;69.80;;;;;;5093364;28;20052;-73
2022/04/14 09:38:57;;;;;;;2.80;2.28;;;25.30;70.40;;;;;;5093275;28;20055;-73
2022/04/14 09:41:37;;;;;;;3.03;2.80;;;25.50;69.90;;;;;;5093379;28;20113;-72
2022/04/14 09:44:06;;;;;;;3.42;2.30;;;25.60;68.50;;;;;;5093204;28;20048;-73
2022/04/14 09:46:33;;;;;;;1.60;1.50;;;25.40;69.20;;;;;;5093234;28;20105;-73
2022/04/14 09:49:03;;;;;;;1.40;1.30;;;25.10;68.10;;;;;;5093332;28;20141;-73
2022/04/14 09:51:30;;;;;;;4.10;1.25;;;25.20;68.60;;;;;;5093158;28;20055;-73
2022/04/14 09:54:14;;;;;;;3.00;2.05;;;25.90;68.40;;;;;;5093066;28;20052;-73
2022/04/14 09:56:44;;;;;;;1.80;1.50;;;26.30;66.40;;;;;;5092996;28;20040;-72
2022/04/14 09:59:13;;;;;;;1.67;1.35;;;26.80;65.90;;;;;;5092838;28;20068;-73
2022/04/14 10:01:40;;;;;;;2.85;1.17;;;27.40;63.50;;;;;;5092966;28;20080;-73
2022/04/14 10:04:07;;;;;;;1.92;1.75;;;27.70;63.20;;;;;;5093097;28;20074;-72
2022/04/14 10:06:34;;;;;;;4.90;2.50;;;28.10;61.40;;;;;;5092805;28;20074;-73
2022/04/14 10:09:02;;;;;;;5.60;4.35;;;28.80;60.40;;;;;;5092966;28;20048;-73
2022/04/14 10:11:34;;;;;;;6.65;4.15;;;28.70;59.60;;;;;;5093199;28;20051;-74
2022/04/14 10:14:10;;;;;;;3.22;2.92;;;28.30;59.90;;;;;;5092651;28;20474;-72
2022/04/14 10:16:39;;;;;;;4.45;3.20;;;27.90;61.00;;;;;;5093009;28;20127;-73
2022/04/14 10:19:08;;;;;;;1.95;1.75;;;27.40;60.80;;;;;;5093534;28;20052;-72
2022/04/14 10:21:35;;;;;;;3.65;2.83;;;26.50;62.10;;;;;;5096682;28;20056;-72
2022/04/14 10:24:02;;;;;;;3.30;2.40;;;26.30;64.00;;;;;;5096605;28;20089;-73
2022/04/14 10:26:32;;;;;;;5.43;2.75;;;26.20;64.90;;;;;;5096509;28;20072;-73
2022/04/14 10:29:00;;;;;;;3.08;2.50;;;25.90;64.20;;;;;;5096620;28;20059;-73
2022/04/14 10:31:26;;;;;;;3.33;2.20;;;25.50;66.00;;;;;;5096247;28;20187;-73
2022/04/14 10:33:54;;;;;;;3.10;2.30;;;24.60;66.90;;;;;;5096229;28;20097;-72
2022/04/14 10:36:21;;;;;;;2.45;1.85;;;24.10;69.80;;;;;;5096519;28;20052;-73
2022/04/14 10:38:49;;;;;;;2.42;2.22;;;23.80;69.80;;;;;;5096459;28;20168;-72
2022/04/14 10:41:21;;;;;;;2.22;1.55;;;23.60;70.90;;;;;;5096433;28;20044;-72
2022/04/14 10:43:49;;;;;;;2.25;1.98;;;23.50;72.00;;;;;;5096160;28;20508;-73
2022/04/14 10:46:16;;;;;;;2.90;1.90;;;23.20;72.40;;;;;;5096221;28;20052;-72
2022/04/14 10:48:44;;;;;;;3.80;1.80;;;23.00;73.40;;;;;;5095756;28;20482;-72
2022/04/14 10:51:26;;;;;;;2.70;1.98;;;23.20;74.10;;;;;;5096025;28;20044;-71
2022/04/14 10:53:58;;;;;;;3.45;2.10;;;23.40;74.60;;;;;;5096009;28;20061;-73
2022/04/14 10:56:43;;;;;;;2.35;1.80;;;23.40;74.00;;;;;;5095729;28;20075;-73
2022/04/14 10:59:12;;;;;;;2.05;1.67;;;23.50;73.80;;;;;;5095852;28;20055;-72
2022/04/14 11:02:02;;;;;;;3.05;1.50;;;23.40;74.00;;;;;;5096094;28;20055;-73
2022/04/14 11:04:31;;;;;;;4.13;2.00;;;23.40;73.90;;;;;;5095870;28;20048;-72
2022/04/14 11:07:01;;;;;;;3.60;1.80;;;22.90;72.70;;;;;;5095404;28;20081;-73
2022/04/14 11:09:57;;;;;;;1.80;1.55;;;22.60;75.00;;;;;;5095406;28;20522;-75
2022/04/14 11:12:25;;;;;;;4.55;2.25;;;22.20;75.80;;;;;;5095374;28;20490;-72
2022/04/14 11:14:56;;;;;;;3.28;2.10;;;22.00;77.70;;;;;;5095464;28;20101;-73
2022/04/14 11:17:53;;;;;;;2.65;1.73;;;21.80;78.50;;;;;;5095581;28;20063;-73
2022/04/14 11:20:22;;;;;;;5.57;3.70;;;21.40;79.00;;;;;;5095370;28;20448;-73
2022/04/14 11:23:06;;;;;;;6.43;2.60;;;21.10;80.10;;;;;;5095383;28;20109;-74
2022/04/14 11:25:48;;;;;;;5.03;2.75;;;21.00;81.60;;;;;;5095384;28;20097;-74
2022/04/14 11:28:20;;;;;;;3.83;2.35;;;20.90;82.30;;;;;;5093765;28;20044;-73
2022/04/14 11:30:49;;;;;;;2.80;2.47;;;20.80;82.60;;;;;;5094967;28;20044;-74
2022/04/14 11:33:22;;;;;;;4.55;2.90;;;20.80;82.70;;;;;;5095221;28;20074;-74
2022/04/14 11:35:49;;;;;;;5.57;3.65;;;20.70;83.60;;;;;;5095254;28;20490;-72
2022/04/14 11:38:51;;;;;;;4.63;3.28;;;20.50;84.50;;;;;;5095197;28;20109;-73
2022/04/14 11:41:37;;;;;;;;;;;20.50;85.80;;;;;;5095489;28;20488;-73
2022/04/14 11:44:06;;;;;;;3.78;2.33;;;20.40;85.20;;;;;;5094910;28;20425;-73
2022/04/14 11:46:37;;;;;;;10.23;6.85;;;20.30;85.10;;;;;;5094917;28;20048;-73
2022/04/14 11:49:04;;;;;;;9.82;4.18;;;20.20;85.50;;;;;;5095076;28;20056;-73
2022/04/14 11:51:31;;;;;;;9.35;5.82;;;20.10;86.60;;;;;;5094834;28;20056;-72
2022/04/14 11:53:58;;;;;;;4.22;3.83;;;20.10;87.70;;;;;;5094493;28;20509;-73
2022/04/14 11:56:25;;;;;;;6.13;4.35;;;20.00;87.80;;;;;;5094879;28;20055;-74
2022/04/14 11:58:53;;;;;;;5.20;4.15;;;19.70;89.50;;;;;;5094707;28;20052;-73
2022/04/14 12:01:20;;;;;;;5.18;4.05;;;19.80;89.80;;;;;;5094616;28;20048;-72
2022/04/14 12:03:48;;;;;;;4.25;3.33;;;19.70;90.20;;;;;;5094284;28;20481;-73
2022/04/14 12:06:16;;;;;;;3.72;3.15;;;19.60;90.50;;;;;;5094433;28;20093;-73
2022/04/14 12:08:43;;;;;;;3.85;2.97;;;19.50;90.60;;;;;;5094198;28;20479;-73
2022/04/14 12:11:16;;;;;;;4.57;3.35;;;19.50;91.10;;;;;;5094343;28;20121;-73
2022/04/14 12:13:43;;;;;;;6.25;3.35;;;19.50;91.70;;;;;;5094614;28;20051;-73
2022/04/14 12:16:12;;;;;;;3.88;2.97;;;19.50;92.00;;;;;;5094339;28;20401;-73
2022/04/14 12:18:41;;;;;;;3.38;2.72;;;19.50;92.40;;;;;;5094553;28;20101;-73
2022/04/14 12:21:19;;;;;;;3.13;2.83;;;19.30;92.30;;;;;;5094209;28;20048;-73
2022/04/14 12:23:48;;;;;;;9.65;5.22;;;19.30;92.50;;;;;;5094356;28;20048;-73
2022/04/14 12:26:15;;;;;;;4.43;3.90;;;19.20;92.70;;;;;;5094305;28;20103;-73
2022/04/14 12:28:42;;;;;;;3.28;2.95;;;19.20;92.80;;;;;;5094104;28;20101;-74
2022/04/14 12:31:12;;;;;;;3.92;2.55;;;19.20;92.40;;;;;;5094099;28;20047;-73
2022/04/14 12:33:39;;;;;;;3.97;3.03;;;19.00;92.80;;;;;;5094067;28;20040;-73
2022/04/14 12:36:07;;;;;;;2.45;2.25;;;19.00;93.30;;;;;;5094062;28;20048;-72
2022/04/14 12:38:44;;;;;;;2.70;2.50;;;18.80;93.80;;;;;;5093895;28;20051;-73
2022/04/14 12:41:17;;;;;;;2.35;1.90;;;18.50;94.10;;;;;;5093286;28;20448;-73
2022/04/14 12:43:47;;;;;;;2.50;2.28;;;18.20;94.80;;;;;;5093167;28;20553;-73
2022/04/14 12:46:24;;;;;;;1.80;1.65;;;17.90;95.80;;;;;;5094042;28;20047;-72
2022/04/14 12:49:02;;;;;;;3.13;1.67;;;17.90;96.70;;;;;;5093846;28;20134;-73
2022/04/14 12:51:31;;;;;;;1.92;1.70;;;17.80;97.30;;;;;;5093740;28;20055;-74